KBLF/BLF METAR and TAF weather

Enter ICAO airport designator
Station Type Date Time Source
KBLF METAR 2020/03/31 23:00 UTC NOAA

KBLF 312300Z AUTO 08003KT 2 1/2SM -SN BR BKN004 OVC010 01/01 A2975 RMK AO2 P0000 T00110006 TSNO


Station Type Date Time Source
KBLF Decoded METAR 2020/03/31 23:00 UTC NOAA

BLUEFIELD MERCER COUNTY AIRPORT , WV, United States (KBLF) 37-18N 081-12W 873M
Mar 31, 2020 - 07:00 PM EDT / 2020.03.31 2300 UTC
Wind: from the E (080 degrees) at 3 MPH (3 KT):0
Visibility: 2 1/2 mile(s):0
Sky conditions: overcast
Weather: light snow; mist
Precipitation last hour: A trace
Temperature: 34.0 F (1.1 C)
Dew Point: 33.1 F (0.6 C)
Relative Humidity: 96%
Pressure (altimeter): 29.75 in. Hg (1007 hPa)
ob: KBLF 312300Z AUTO 08003KT 2 1/2SM -SN BR BKN004 OVC010 01/01 A2975 RMK AO2 P0000 T00110006 TSNO
cycle: 23

Station Type Date Time Source
KBLF TAF 2020/03/31 21:09 UTC NOAA

TAF
AMD KBLF 312107Z 3121/0118 12005KT 6SM -RA OVC035
TEMPO 3122/3124 4SM RA OVC025
FM010000 VRB03KT 3SM -RA OVC008
FM010500 33005KT 4SM -RA BR OVC006
FM010900 32006KT 1 1/2SM -SHRA BR OVC004
FM011500 31008KT 4SM -SHRA BR OVC005

Example: see airport list